Hoopa Valley Indian Reservat, California
Current Conditions -  °F | °C
As of 12:53 PM on Tuesday 21 Oct 2014 (Local Time) from KACV Reporting Station
Clear Clear  
Wind Chill: 64°   Ceiling: Unl
Heat Index: 64°   Visibility: 10mi
Dew Point: 48°   Wind: 3mph
Humidity: 56%   Direction: 230°SW
Pressure: 30.1"   Gusts: NA
Location:  41.4038°N, 123.781°W
Report Text: KACV 211953Z AUTO 23003KT 10SM CLR 18/09 A3010 RMK AO2 SLP196 T01780089
Loading
Personal Weather Stations






























Interactive Weather Map
Tropical Storm Tracking
New forecast layout! Learn more

10-Day Weather Forecast

Advertisements
Track Severe Weather on mobile